createdAt,value
2017-11-18T00:01:54.029Z,-82
2017-11-18T00:04:20.907Z,-83
2017-11-18T00:06:47.749Z,-81
2017-11-18T00:09:14.541Z,-81
2017-11-18T00:11:41.361Z,-82
2017-11-18T00:14:08.392Z,-82
2017-11-18T00:16:35.934Z,-82
2017-11-18T00:19:02.753Z,-82
2017-11-18T00:21:29.643Z,-80
2017-11-18T00:23:56.491Z,-80
2017-11-18T00:26:24.077Z,-84
2017-11-18T00:28:50.916Z,-84
2017-11-18T00:31:17.734Z,-83
2017-11-18T00:33:44.558Z,-83
2017-11-18T00:36:12.609Z,-83
2017-11-18T00:38:39.495Z,-79
2017-11-18T00:41:06.372Z,-80
2017-11-18T00:43:33.204Z,-80
2017-11-18T00:46:00.056Z,-81
2017-11-18T00:48:27.602Z,-81
2017-11-18T00:50:54.435Z,-81
2017-11-18T00:53:21.265Z,-84
2017-11-18T00:55:48.208Z,-84
2017-11-18T00:58:16.818Z,-81
2017-11-18T01:00:43.709Z,-80
2017-11-18T01:03:10.650Z,-80
2017-11-18T01:05:37.550Z,-80
2017-11-18T01:08:04.409Z,-80
2017-11-18T01:10:31.846Z,-83
2017-11-18T01:12:58.682Z,-80
2017-11-18T01:15:25.569Z,-79
2017-11-18T01:17:52.383Z,-81
2017-11-18T01:20:19.215Z,-85
2017-11-18T01:22:46.057Z,-82
2017-11-18T01:25:12.923Z,-80
2017-11-18T01:27:39.813Z,-80
2017-11-18T01:30:06.641Z,-80
2017-11-18T01:32:33.480Z,-83
2017-11-18T01:35:01.089Z,-81
2017-11-18T01:37:28.013Z,-80
2017-11-18T01:39:54.845Z,-80
2017-11-18T01:42:21.729Z,-79
2017-11-18T01:44:48.612Z,-79
2017-11-18T01:47:16.174Z,-82
2017-11-18T01:49:43.100Z,-83
2017-11-18T01:52:10.693Z,-83
2017-11-18T01:54:37.568Z,-82
2017-11-18T01:57:04.459Z,-86
2017-11-18T01:59:32.050Z,-84
2017-11-18T02:01:58.928Z,-86
2017-11-18T02:04:25.856Z,-86
2017-11-18T02:06:53.479Z,-88
2017-11-18T02:09:20.337Z,-85
2017-11-18T02:11:47.237Z,-84
2017-11-18T02:14:14.068Z,-85
2017-11-18T02:16:40.957Z,-87
2017-11-18T02:19:07.876Z,-87
2017-11-18T02:21:34.798Z,-85
2017-11-18T02:24:02.432Z,-87
2017-11-18T02:26:29.379Z,-87
2017-11-18T02:28:56.235Z,-87
2017-11-18T02:31:23.114Z,-87
2017-11-18T02:33:50.046Z,-86
2017-11-18T02:36:17.721Z,-86
2017-11-18T02:38:45.363Z,-85
2017-11-18T02:41:12.235Z,-85
2017-11-18T02:43:39.086Z,-88
2017-11-18T02:46:05.975Z,-87
2017-11-18T02:48:33.000Z,-86
2017-11-18T02:50:59.908Z,-86
2017-11-18T02:53:27.565Z,-88
2017-11-18T02:55:54.471Z,-84
2017-11-18T02:58:22.107Z,-84
2017-11-18T03:00:49.000Z,-83
2017-11-18T03:03:16.567Z,-82
2017-11-18T03:05:43.405Z,-83
2017-11-18T03:08:10.257Z,-82
2017-11-18T03:10:37.115Z,-84
2017-11-18T03:13:04.028Z,-83
2017-11-18T03:15:31.657Z,-85
2017-11-18T03:17:58.524Z,-82
2017-11-18T03:20:25.353Z,-85
2017-11-18T03:22:52.215Z,-83
2017-11-18T03:25:19.084Z,-83
2017-11-18T03:27:45.919Z,-83
2017-11-18T03:30:13.531Z,-83
2017-11-18T03:32:40.400Z,-84
2017-11-18T03:35:07.257Z,-82
2017-11-18T03:37:34.087Z,-83
2017-11-18T03:40:00.985Z,-84
2017-11-18T03:42:27.847Z,-84
2017-11-18T03:44:54.666Z,-84
2017-11-18T03:47:21.578Z,-82
2017-11-18T03:49:48.473Z,-83
2017-11-18T03:52:16.152Z,-84
2017-11-18T03:54:43.748Z,-82
2017-11-18T03:57:10.578Z,-83
2017-11-18T03:59:37.478Z,-83
2017-11-18T04:02:04.332Z,-84
2017-11-18T04:04:32.032Z,-84
2017-11-18T04:06:58.879Z,-85
2017-11-18T04:09:25.765Z,-82
2017-11-18T04:11:53.428Z,-83
2017-11-18T04:14:20.256Z,-82
2017-11-18T04:16:47.055Z,-84
2017-11-18T04:19:13.873Z,-82
2017-11-18T04:21:40.730Z,-84
2017-11-18T04:24:07.573Z,-82
2017-11-18T04:26:34.421Z,-83
2017-11-18T04:29:01.296Z,-84
2017-11-18T04:31:28.158Z,-83
2017-11-18T04:33:55.052Z,-85
2017-11-18T04:36:22.743Z,-85
2017-11-18T04:38:49.621Z,-83
2017-11-18T04:41:16.480Z,-85
2017-11-18T04:43:43.392Z,-83
2017-11-18T04:46:10.279Z,-83
2017-11-18T04:48:37.910Z,-85
2017-11-18T04:51:04.788Z,-87
2017-11-18T04:53:31.652Z,-86
2017-11-18T04:55:58.516Z,-86
2017-11-18T04:58:25.363Z,-87
2017-11-18T05:00:52.211Z,-87
2017-11-18T05:03:19.101Z,-85
2017-11-18T05:05:45.994Z,-83
2017-11-18T05:08:13.616Z,-84
2017-11-18T05:10:40.509Z,-86
2017-11-18T05:13:07.360Z,-83
2017-11-18T05:15:34.208Z,-84
2017-11-18T05:18:01.082Z,-85
2017-11-18T05:20:27.985Z,-84
2017-11-18T05:22:55.539Z,-81
2017-11-18T05:25:22.441Z,-85
2017-11-18T05:27:49.290Z,-83
2017-11-18T05:30:16.265Z,-83
2017-11-18T05:32:43.080Z,-84
2017-11-18T05:35:09.885Z,-85
2017-11-18T05:37:36.798Z,-83
2017-11-18T05:40:03.634Z,-85
2017-11-18T05:42:30.454Z,-82
2017-11-18T05:44:58.005Z,-81
2017-11-18T05:47:24.843Z,-84
2017-11-18T05:49:51.651Z,-82
2017-11-18T05:52:19.194Z,-83
2017-11-18T05:54:46.013Z,-83
2017-11-18T05:57:12.844Z,-82
2017-11-18T05:59:40.458Z,-83
2017-11-18T06:02:07.365Z,-85
2017-11-18T06:04:34.241Z,-84
2017-11-18T06:07:01.051Z,-82
2017-11-18T06:09:28.454Z,-83
2017-11-18T06:11:55.287Z,-82
2017-11-18T06:14:22.152Z,-84
2017-11-18T06:16:48.976Z,-84
2017-11-18T06:19:15.874Z,-83
2017-11-18T06:21:42.917Z,-82
2017-11-18T06:24:09.779Z,-84
2017-11-18T06:26:36.579Z,-85
2017-11-18T06:29:03.406Z,-85
2017-11-18T06:31:30.212Z,-82
2017-11-18T06:33:57.249Z,-85
2017-11-18T06:36:24.108Z,-85
2017-11-18T06:38:50.971Z,-84
2017-11-18T06:41:17.783Z,-84
2017-11-18T06:43:45.398Z,-84
2017-11-18T06:46:12.257Z,-84
2017-11-18T06:48:39.075Z,-85
2017-11-18T06:51:05.987Z,-85
2017-11-18T06:53:32.858Z,-86
2017-11-18T06:55:59.687Z,-83
2017-11-18T06:58:26.477Z,-83
2017-11-18T07:00:53.336Z,-84
2017-11-18T07:03:20.159Z,-83
2017-11-18T07:05:47.722Z,-82
2017-11-18T07:08:15.330Z,-83
2017-11-18T07:10:42.170Z,-83
2017-11-18T07:13:09.737Z,-84
2017-11-18T07:15:36.565Z,-87
2017-11-18T07:18:03.415Z,-83
2017-11-18T07:20:30.267Z,-85
2017-11-18T07:22:57.138Z,-84
2017-11-18T07:25:23.980Z,-84
2017-11-18T07:27:50.871Z,-82
2017-11-18T07:30:17.705Z,-83
2017-11-18T07:32:44.621Z,-85
2017-11-18T07:35:11.425Z,-86
2017-11-18T07:37:38.250Z,-87
2017-11-18T07:40:05.051Z,-82
2017-11-18T07:42:31.857Z,-85
2017-11-18T07:44:59.410Z,-84
2017-11-18T07:47:26.646Z,-84
2017-11-18T07:49:53.494Z,-86
2017-11-18T07:52:21.290Z,-82
2017-11-18T07:54:48.219Z,-85
2017-11-18T07:57:16.542Z,-83
2017-11-18T07:59:43.362Z,-83
2017-11-18T08:02:10.195Z,-86
2017-11-18T08:04:37.040Z,-86
2017-11-18T08:07:03.932Z,-85
2017-11-18T08:09:30.766Z,-82
2017-11-18T08:11:57.554Z,-85
2017-11-18T08:14:24.352Z,-84
2017-11-18T08:16:51.931Z,-85
2017-11-18T08:19:20.457Z,-84
2017-11-18T08:21:47.254Z,-86
2017-11-18T08:24:14.114Z,-87
2017-11-18T08:26:40.961Z,-87
2017-11-18T08:29:07.830Z,-84
2017-11-18T08:31:35.598Z,-87
2017-11-18T08:34:02.482Z,-86
2017-11-18T08:36:35.557Z,-85
2017-11-18T08:39:02.584Z,-87
2017-11-18T08:41:30.170Z,-86
2017-11-18T08:43:57.734Z,-86
2017-11-18T08:46:25.483Z,-86
2017-11-18T08:48:52.305Z,-85
2017-11-18T08:51:19.166Z,-86
2017-11-18T08:53:46.046Z,-84
2017-11-18T08:56:13.138Z,-84
2017-11-18T08:58:40.002Z,-86
2017-11-18T09:01:06.870Z,-86
2017-11-18T09:03:33.743Z,-85
2017-11-18T09:06:00.684Z,-86
2017-11-18T09:08:27.527Z,-88
2017-11-18T09:10:55.087Z,-84
2017-11-18T09:13:21.923Z,-87
2017-11-18T09:15:49.489Z,-84
2017-11-18T09:18:17.088Z,-86
2017-11-18T09:20:44.047Z,-85
2017-11-18T09:23:10.921Z,-86
2017-11-18T09:25:37.762Z,-85
2017-11-18T09:28:05.341Z,-84
2017-11-18T09:30:32.900Z,-82
2017-11-18T09:32:59.711Z,-86
2017-11-18T09:35:26.529Z,-83
2017-11-18T09:37:54.237Z,-83
2017-11-18T09:40:21.076Z,-85
2017-11-18T09:42:48.675Z,-83
2017-11-18T09:45:15.526Z,-83
2017-11-18T09:47:43.118Z,-85
2017-11-18T09:50:10.044Z,-85
2017-11-18T09:52:37.022Z,-85
2017-11-18T09:55:04.597Z,-86
2017-11-18T09:57:32.200Z,-86
2017-11-18T09:59:59.025Z,-85
2017-11-18T10:02:25.852Z,-87
2017-11-18T10:04:52.710Z,-86
2017-11-18T10:07:19.592Z,-91
2017-11-18T10:09:46.434Z,-90
2017-11-18T10:12:13.309Z,-93
2017-11-18T10:14:40.190Z,-92
2017-11-18T10:17:07.005Z,-90
2017-11-18T10:19:33.860Z,-93
2017-11-18T10:22:00.689Z,-93
2017-11-18T10:24:27.510Z,-93
2017-11-18T10:26:54.354Z,-93
2017-11-18T10:29:21.202Z,-93
2017-11-18T10:31:48.837Z,-91
2017-11-18T10:34:16.453Z,-92
2017-11-18T10:36:43.436Z,-91
2017-11-18T10:39:10.294Z,-92
2017-11-18T10:41:37.209Z,-91
2017-11-18T10:44:04.837Z,-90
2017-11-18T10:46:31.741Z,-89
2017-11-18T10:48:58.650Z,-92
2017-11-18T10:51:25.551Z,-89
2017-11-18T10:53:52.430Z,-92
2017-11-18T10:56:19.283Z,-89
2017-11-18T10:58:46.148Z,-87
2017-11-18T11:01:13.031Z,-92
2017-11-18T11:03:40.618Z,-89
2017-11-18T11:06:07.532Z,-90
2017-11-18T11:08:35.225Z,-90
2017-11-18T11:11:02.169Z,-89
2017-11-18T11:13:29.079Z,-88
2017-11-18T11:15:56.644Z,-89
2017-11-18T11:18:24.267Z,-90
2017-11-18T11:20:51.141Z,-90
2017-11-18T11:23:18.006Z,-88
2017-11-18T11:25:44.948Z,-88
2017-11-18T11:28:11.786Z,-89
2017-11-18T11:30:39.745Z,-90
2017-11-18T11:33:06.571Z,-92
2017-11-18T11:35:33.383Z,-91
2017-11-18T11:38:00.993Z,-90
2017-11-18T11:40:27.846Z,-90
2017-11-18T11:42:54.793Z,-92
2017-11-18T11:45:22.472Z,-91
2017-11-18T11:47:50.089Z,-91
2017-11-18T11:50:17.028Z,-90
2017-11-18T11:52:43.901Z,-90
2017-11-18T11:55:10.814Z,-90
2017-11-18T11:57:37.727Z,-89
2017-11-18T12:00:04.705Z,-89
2017-11-18T12:02:31.553Z,-91
2017-11-18T12:04:58.426Z,-92
2017-11-18T12:07:25.411Z,-92
2017-11-18T12:09:52.290Z,-92
2017-11-18T12:12:19.354Z,-90
2017-11-18T12:14:46.243Z,-93
2017-11-18T12:17:13.984Z,-92
2017-11-18T12:19:40.856Z,-91
2017-11-18T12:22:07.916Z,-90
2017-11-18T12:24:34.872Z,-91
2017-11-18T12:27:01.750Z,-90
2017-11-18T12:29:28.671Z,-92
2017-11-18T12:31:55.546Z,-93
2017-11-18T12:34:23.636Z,-91
2017-11-18T12:36:50.587Z,-90
2017-11-18T12:39:17.536Z,-82
2017-11-18T12:41:44.789Z,-85
2017-11-18T12:44:12.365Z,-84
2017-11-18T12:46:40.104Z,-84
2017-11-18T12:49:06.998Z,-85
2017-11-18T12:51:33.845Z,-86
2017-11-18T12:54:00.687Z,-85
2017-11-18T12:56:27.555Z,-86
2017-11-18T12:58:54.601Z,-83
2017-11-18T13:01:21.488Z,-82
2017-11-18T13:03:49.044Z,-82
2017-11-18T13:06:15.859Z,-84
2017-11-18T13:08:43.438Z,-83
2017-11-18T13:11:11.030Z,-83
2017-11-18T13:13:37.871Z,-82
2017-11-18T13:16:05.446Z,-86
2017-11-18T13:18:33.157Z,-85
2017-11-18T13:20:59.995Z,-83
2017-11-18T13:23:27.744Z,-83
2017-11-18T13:25:54.598Z,-82
2017-11-18T13:28:21.812Z,-86
2017-11-18T13:30:49.418Z,-84
2017-11-18T13:33:17.093Z,-81
2017-11-18T13:35:44.133Z,-80
2017-11-18T13:38:11.735Z,-80
2017-11-18T13:40:38.659Z,-82
2017-11-18T13:43:06.297Z,-82
2017-11-18T13:45:33.152Z,-83
2017-11-18T13:48:01.352Z,-82
2017-11-18T13:50:28.298Z,-82
2017-11-18T13:52:55.170Z,-83
2017-11-18T13:55:22.038Z,-82
2017-11-18T13:57:48.934Z,-86
2017-11-18T14:00:16.579Z,-82
2017-11-18T14:02:43.869Z,-82
2017-11-18T14:05:10.853Z,-82
2017-11-18T14:07:37.728Z,-83
2017-11-18T14:10:04.666Z,-83
2017-11-18T14:12:31.777Z,-83
2017-11-18T14:14:58.649Z,-84
2017-11-18T14:17:25.532Z,-85
2017-11-18T14:19:52.485Z,-83
2017-11-18T14:22:19.435Z,-84
2017-11-18T14:24:46.328Z,-85
2017-11-18T14:27:13.226Z,-84
2017-11-18T14:29:40.122Z,-84
2017-11-18T14:32:07.018Z,-86
2017-11-18T14:34:33.950Z,-85
2017-11-18T14:37:00.890Z,-84
2017-11-18T14:39:27.865Z,-83
2017-11-18T14:41:55.324Z,-83
2017-11-18T14:44:22.746Z,-85
2017-11-18T14:46:49.656Z,-83
2017-11-18T14:49:19.777Z,-83
2017-11-18T14:54:51.495Z,-85
2017-11-18T14:57:19.246Z,-84
2017-11-18T14:59:49.197Z,-84
2017-11-18T15:02:16.947Z,-85
2017-11-18T15:04:43.899Z,-85
2017-11-18T15:07:10.865Z,-85
2017-11-18T15:09:38.533Z,-85
2017-11-18T15:12:05.802Z,-84
2017-11-18T16:09:53.310Z,-83
2017-11-18T16:12:20.257Z,-83
2017-11-18T16:14:48.803Z,-82
2017-11-18T16:17:15.833Z,-84
2017-11-18T16:19:42.841Z,-85
2017-11-18T16:22:09.811Z,-84
2017-11-18T16:24:36.800Z,-82
2017-11-18T16:27:03.733Z,-84
2017-11-18T16:29:30.675Z,-83
2017-11-18T16:31:57.624Z,-84
2017-11-18T16:34:24.596Z,-84
2017-11-18T16:36:52.759Z,-86
2017-11-18T16:39:19.968Z,-84
2017-11-18T16:41:47.157Z,-84
2017-11-18T16:44:14.294Z,-84
2017-11-18T16:46:42.052Z,-85
2017-11-18T16:49:09.097Z,-88
2017-11-18T16:51:36.572Z,-86
2017-11-18T16:54:04.673Z,-85
2017-11-18T16:56:33.240Z,-83
2017-11-18T16:59:00.244Z,-84
2017-11-18T17:01:27.347Z,-85
2017-11-18T17:03:55.114Z,-86
2017-11-18T17:06:22.072Z,-85
2017-11-18T17:08:49.035Z,-84
2017-11-18T17:11:16.058Z,-86
2017-11-18T17:13:45.212Z,-85
2017-11-18T17:16:12.144Z,-83
2017-11-18T17:18:39.911Z,-84
2017-11-18T17:21:07.101Z,-86
2017-11-18T17:23:34.169Z,-83
2017-11-18T17:26:01.054Z,-83
2017-11-18T17:28:28.003Z,-83
2017-11-18T17:30:54.904Z,-84
2017-11-18T17:33:25.841Z,-86
2017-11-18T17:35:53.639Z,-84
2017-11-18T17:38:20.582Z,-85
2017-11-18T17:40:47.765Z,-85
2017-11-18T17:43:14.688Z,-84
2017-11-18T17:45:41.820Z,-84
2017-11-18T17:48:09.495Z,-81
2017-11-18T17:50:37.201Z,-85
2017-11-18T17:53:04.764Z,-85
2017-11-18T17:55:32.181Z,-85
2017-11-18T17:57:59.346Z,-85
2017-11-18T18:00:26.468Z,-84
2017-11-18T18:02:53.474Z,-86
2017-11-18T18:05:20.411Z,-86
2017-11-18T18:07:49.280Z,-84
2017-11-18T18:10:19.809Z,-84
2017-11-18T18:12:48.892Z,-82
2017-11-18T18:15:16.028Z,-83
2017-11-18T18:17:43.794Z,-79
2017-11-18T18:20:11.625Z,-84
2017-11-18T18:22:38.749Z,-87
2017-11-18T18:25:06.325Z,-84
2017-11-18T18:27:33.382Z,-85
2017-11-18T18:30:00.518Z,-85
2017-11-18T18:32:27.680Z,-83
2017-11-18T18:34:55.042Z,-83
2017-11-18T18:37:21.979Z,-84
2017-11-18T18:39:49.678Z,-84
2017-11-18T18:42:17.093Z,-86
2017-11-18T18:44:44.174Z,-85
2017-11-18T18:47:11.840Z,-84
2017-11-18T18:49:38.847Z,-84
2017-11-18T18:52:05.842Z,-87
2017-11-18T18:54:32.786Z,-86
2017-11-18T18:56:59.731Z,-87
2017-11-18T18:59:27.360Z,-82
2017-11-18T19:01:54.277Z,-82
2017-11-18T19:04:22.424Z,-86
2017-11-18T19:06:49.994Z,-84
2017-11-18T19:09:17.330Z,-83
2017-11-18T19:11:44.667Z,-82
2017-11-18T19:14:12.322Z,-85
2017-11-18T19:16:40.652Z,-83
2017-11-18T19:19:07.570Z,-84
2017-11-18T19:21:34.773Z,-82
2017-11-18T19:24:02.409Z,-83
2017-11-18T19:26:29.294Z,-83
2017-11-18T19:28:56.216Z,-82
2017-11-18T19:31:23.434Z,-83
2017-11-18T19:33:51.090Z,-82
2017-11-18T19:36:17.991Z,-84
2017-11-18T19:38:44.841Z,-84
2017-11-18T19:41:11.768Z,-84
2017-11-18T19:43:39.486Z,-83
2017-11-18T19:46:06.376Z,-83
2017-11-18T19:48:34.045Z,-83
2017-11-18T19:51:01.897Z,-82
2017-11-18T19:53:28.885Z,-83
2017-11-18T19:55:57.669Z,-83
2017-11-18T19:58:26.503Z,-83
2017-11-18T20:00:55.208Z,-83
2017-11-18T20:03:24.977Z,-83
2017-11-18T20:05:53.771Z,-84
2017-11-18T20:08:21.967Z,-84
2017-11-18T20:10:50.235Z,-84
2017-11-18T20:13:19.034Z,-84
2017-11-18T20:15:47.037Z,-82
2017-11-18T20:18:15.508Z,-83
2017-11-18T20:20:43.097Z,-82
2017-11-18T20:23:11.188Z,-85
2017-11-18T20:25:40.463Z,-85
2017-11-18T20:28:10.048Z,-80
2017-11-18T20:30:38.408Z,-80
2017-11-18T20:33:06.995Z,-80
2017-11-18T20:35:35.715Z,-80
2017-11-18T20:38:04.391Z,-81
2017-11-18T20:40:32.737Z,-82
2017-11-18T20:42:59.606Z,-85
2017-11-18T20:45:27.244Z,-82
2017-11-18T20:47:54.125Z,-82
2017-11-18T20:50:21.101Z,-85
2017-11-18T20:52:49.535Z,-82
2017-11-18T20:55:17.993Z,-86
2017-11-18T20:57:46.386Z,-84
2017-11-18T21:00:15.148Z,-84
2017-11-18T21:02:44.814Z,-84
2017-11-18T21:05:13.345Z,-84
2017-11-18T21:07:41.661Z,-87
2017-11-18T21:10:10.746Z,-84
2017-11-18T21:12:38.013Z,-82
2017-11-18T21:15:06.593Z,-83
2017-11-18T21:17:35.082Z,-84
2017-11-18T21:20:04.060Z,-84
2017-11-18T21:22:33.160Z,-86
2017-11-18T21:25:02.038Z,-86
2017-11-18T21:27:30.444Z,-83
2017-11-18T21:29:59.282Z,-83
2017-11-18T21:32:28.192Z,-81
2017-11-18T21:34:56.948Z,-81
2017-11-18T21:37:26.146Z,-81
2017-11-18T21:39:54.749Z,-82
2017-11-18T21:42:23.865Z,-82
2017-11-18T21:44:51.274Z,-84
2017-11-18T21:47:19.532Z,-85
2017-11-18T21:49:47.470Z,-83
2017-11-18T21:52:16.174Z,-84
2017-11-18T21:54:43.860Z,-85
2017-11-18T21:57:11.434Z,-82
2017-11-18T21:59:39.036Z,-85
2017-11-18T22:02:06.600Z,-84
2017-11-18T22:04:33.979Z,-85
2017-11-18T22:07:01.006Z,-82
2017-11-18T22:09:28.736Z,-87
2017-11-18T22:11:55.903Z,-84
2017-11-18T22:14:23.676Z,-83
2017-11-18T22:16:50.565Z,-90
2017-11-18T22:19:17.471Z,-85
2017-11-18T22:21:44.383Z,-81
2017-11-18T22:24:11.338Z,-84
2017-11-18T22:26:38.272Z,-82
2017-11-18T22:29:05.136Z,-83
2017-11-18T22:31:31.976Z,-84
2017-11-18T22:33:59.613Z,-84
2017-11-18T22:36:26.439Z,-82
2017-11-18T22:38:53.367Z,-86
2017-11-18T22:41:20.960Z,-85
2017-11-18T22:43:47.792Z,-82
2017-11-18T22:46:14.652Z,-82
2017-11-18T22:48:41.477Z,-82
2017-11-18T22:51:08.326Z,-83
2017-11-18T22:53:35.910Z,-83
2017-11-18T22:56:02.730Z,-83
2017-11-18T22:58:30.339Z,-84
2017-11-18T23:00:57.275Z,-85
2017-11-18T23:03:24.885Z,-84
2017-11-18T23:05:51.781Z,-82
2017-11-18T23:08:18.641Z,-86
2017-11-18T23:10:45.492Z,-82
2017-11-18T23:13:12.346Z,-81
2017-11-18T23:15:39.234Z,-82
2017-11-18T23:18:06.100Z,-81
2017-11-18T23:20:32.998Z,-85
2017-11-18T23:22:59.827Z,-84
2017-11-18T23:25:26.911Z,-82
2017-11-18T23:27:54.474Z,-83
2017-11-18T23:30:21.524Z,-82
2017-11-18T23:32:48.406Z,-86
2017-11-18T23:35:16.048Z,-82
2017-11-18T23:37:42.929Z,-81
2017-11-18T23:40:09.818Z,-84
2017-11-18T23:42:39.612Z,-83
2017-11-18T23:45:07.721Z,-87
2017-11-18T23:47:34.748Z,-82
2017-11-18T23:50:01.862Z,-84
2017-11-18T23:52:29.504Z,-82
2017-11-18T23:54:56.421Z,-82
2017-11-18T23:57:24.570Z,-86
2017-11-18T23:59:51.465Z,-83
